Roanoke, VA (24050)

10:45 AM EDT on April 25, 2015 (GMT -0400)
Hollins-Northway Roanoke County | | Change Station
CLOSE
Current Station
Personal Weather Station
Location: Hollins, VA
Elevation: 1129 ft
Nearby Weather Stations

Elev 1129 ft 37.34 °N, 79.95 °W | Updated 13 minutes ago

Overcast
Overcast
45.9 °F
Feels Like 46 °F
N
0.0
Wind Variable Wind from SE

Today
High -- | Low -- °F
--% Chance of Precip.
Yesterday
High -- | Low -- °F
Precip. -- in
6:32 AM 8:03 PM
Waxing Crescent, 46% visible
Pressure 29.95 in
Visibility 10.0 miles
Clouds Overcast 6000 ft
Windchill 46 °F
Dew Point 42 °F
Humidity 88%
Rainfall 0.16 in
Snow Depth Not available.
UV 2 out of 12
Pollen 10.70 out of 12
Air Quality Not available.
Flu Activity Sporadic
METAR KROA 251354Z 03005KT 10SM OVC060 07/04 A2995 RMK AO2 RAE30 SLP141 P0000 T00720044

More Conditions Fewer Conditions

Pressure 29.95 in
Visibility 10.0 miles
Clouds Overcast 6000 ft
Windchill 46 °F
Dew Point 42 °F
Humidity 88%
Rainfall 0.16 in
Snow Depth Not available.
UV 2 out of 12
Pollen 10.70 out of 12
Air Quality Not available.
Flu Activity Sporadic
METAR KROA 251354Z 03005KT 10SM OVC060 07/04 A2995 RMK AO2 RAE30 SLP141 P0000 T00720044

More Conditions Fewer Conditions

10-Day Weather Forecast

Almanac

Astronomy

Apr. 25, 2015 Rise Set
Actual Time
Civil Twilight
Nautical Twilight
Astronomical Twilight
Moon
Length of Visible Light
Length of Day
Tomorrow will be .
, % of the Moon is Illuminated

Today's Extremes

State Highs State Lows

Community

WunderPhotos

Upload Photos

1,816,691 photos uploaded!

WunderBlogs® & News

Nearby

Air Quality

  Air Quality AQ Index Pollutant
Not available.

Snow Depth

Station Depth Elevation

Earthquake Activity

City Distance Mag. Time & Date
Minimum magnitude displayed is 2.5.

Coastal Water Temperatures

Place Temperature

Stations

Nearby Weather Stations

Station Location Temp. Windchill Dew Point Humidity Wind Precip. Elev Updated Type